sensor_id;sensor_type;location;lat;lon;timestamp;P1;durP1;ratioP1;P2;durP2;ratioP2
43819;SDS011;67762;52.476;6.046;2023-02-16T00:01:52;67.07;;;59.90;;
43819;SDS011;67762;52.476;6.046;2023-02-16T00:04:19;70.40;;;62.67;;
43819;SDS011;67762;52.476;6.046;2023-02-16T00:06:47;77.35;;;69.80;;
43819;SDS011;67762;52.476;6.046;2023-02-16T00:09:13;68.68;;;61.33;;
43819;SDS011;67762;52.476;6.046;2023-02-16T00:11:39;81.85;;;73.75;;
43819;SDS011;67762;52.476;6.046;2023-02-16T00:14:24;86.82;;;78.72;;
43819;SDS011;67762;52.476;6.046;2023-02-16T00:16:51;70.97;;;63.28;;
43819;SDS011;67762;52.476;6.046;2023-02-16T00:19:22;85.85;;;74.28;;
43819;SDS011;67762;52.476;6.046;2023-02-16T00:21:51;63.42;;;56.63;;
43819;SDS011;67762;52.476;6.046;2023-02-16T00:24:18;66.85;;;60.90;;
43819;SDS011;67762;52.476;6.046;2023-02-16T00:26:43;79.60;;;71.63;;
43819;SDS011;67762;52.476;6.046;2023-02-16T00:29:20;75.53;;;67.65;;
43819;SDS011;67762;52.476;6.046;2023-02-16T00:31:49;78.72;;;69.75;;
43819;SDS011;67762;52.476;6.046;2023-02-16T00:36:52;71.30;;;62.92;;
43819;SDS011;67762;52.476;6.046;2023-02-16T00:39:19;87.13;;;77.70;;
43819;SDS011;67762;52.476;6.046;2023-02-16T00:41:45;82.78;;;73.70;;
43819;SDS011;67762;52.476;6.046;2023-02-16T00:44:15;90.25;;;81.88;;
43819;SDS011;67762;52.476;6.046;2023-02-16T00:46:44;90.85;;;72.30;;
43819;SDS011;67762;52.476;6.046;2023-02-16T00:49:12;76.97;;;61.58;;
43819;SDS011;67762;52.476;6.046;2023-02-16T00:51:39;86.47;;;77.35;;
43819;SDS011;67762;52.476;6.046;2023-02-16T00:54:05;78.78;;;70.40;;
43819;SDS011;67762;52.476;6.046;2023-02-16T00:56:30;74.75;;;61.28;;
43819;SDS011;67762;52.476;6.046;2023-02-16T00:58:57;74.63;;;66.35;;
43819;SDS011;67762;52.476;6.046;2023-02-16T01:01:31;84.75;;;69.82;;
43819;SDS011;67762;52.476;6.046;2023-02-16T01:04:02;86.00;;;76.70;;
43819;SDS011;67762;52.476;6.046;2023-02-16T01:06:31;96.82;;;86.63;;
43819;SDS011;67762;52.476;6.046;2023-02-16T01:09:16;78.25;;;69.03;;
43819;SDS011;67762;52.476;6.046;2023-02-16T01:12:02;77.82;;;69.43;;
43819;SDS011;67762;52.476;6.046;2023-02-16T01:14:30;93.18;;;83.03;;
43819;SDS011;67762;52.476;6.046;2023-02-16T01:16:58;90.07;;;79.93;;
43819;SDS011;67762;52.476;6.046;2023-02-16T01:19:27;88.57;;;76.25;;
43819;SDS011;67762;52.476;6.046;2023-02-16T01:21:52;87.22;;;77.93;;
43819;SDS011;67762;52.476;6.046;2023-02-16T01:24:18;98.90;;;87.75;;
43819;SDS011;67762;52.476;6.046;2023-02-16T01:26:47;95.35;;;85.53;;
43819;SDS011;67762;52.476;6.046;2023-02-16T01:29:18;89.80;;;80.60;;
43819;SDS011;67762;52.476;6.046;2023-02-16T01:31:48;70.63;;;64.18;;
43819;SDS011;67762;52.476;6.046;2023-02-16T01:34:14;90.40;;;81.18;;
43819;SDS011;67762;52.476;6.046;2023-02-16T01:36:43;101.45;;;91.60;;
43819;SDS011;67762;52.476;6.046;2023-02-16T01:39:14;118.60;;;106.97;;
43819;SDS011;67762;52.476;6.046;2023-02-16T01:44:45;99.30;;;89.15;;
43819;SDS011;67762;52.476;6.046;2023-02-16T01:49:52;115.65;;;104.43;;
43819;SDS011;67762;52.476;6.046;2023-02-16T01:52:22;94.40;;;84.88;;
43819;SDS011;67762;52.476;6.046;2023-02-16T01:54:59;70.20;;;63.30;;
43819;SDS011;67762;52.476;6.046;2023-02-16T01:57:41;99.25;;;89.70;;
43819;SDS011;67762;52.476;6.046;2023-02-16T02:02:49;88.28;;;66.93;;
43819;SDS011;67762;52.476;6.046;2023-02-16T02:08:02;90.47;;;77.15;;
43819;SDS011;67762;52.476;6.046;2023-02-16T02:13:28;89.80;;;76.97;;
43819;SDS011;67762;52.476;6.046;2023-02-16T02:16:02;94.18;;;78.30;;
43819;SDS011;67762;52.476;6.046;2023-02-16T02:18:30;88.90;;;70.50;;
43819;SDS011;67762;52.476;6.046;2023-02-16T02:20:59;86.07;;;69.80;;
43819;SDS011;67762;52.476;6.046;2023-02-16T02:35:15;69.78;;;58.95;;
43819;SDS011;67762;52.476;6.046;2023-02-16T02:45:22;78.95;;;67.90;;
43819;SDS011;67762;52.476;6.046;2023-02-16T02:47:52;77.68;;;61.38;;
43819;SDS011;67762;52.476;6.046;2023-02-16T02:53:02;64.60;;;55.03;;
43819;SDS011;67762;52.476;6.046;2023-02-16T02:55:30;82.40;;;65.85;;
43819;SDS011;67762;52.476;6.046;2023-02-16T02:58:20;80.35;;;67.68;;
43819;SDS011;67762;52.476;6.046;2023-02-16T03:01:10;75.18;;;67.68;;
43819;SDS011;67762;52.476;6.046;2023-02-16T03:03:39;82.70;;;73.57;;
43819;SDS011;67762;52.476;6.046;2023-02-16T03:06:12;86.13;;;66.70;;
43819;SDS011;67762;52.476;6.046;2023-02-16T03:08:43;82.57;;;67.20;;
43819;SDS011;67762;52.476;6.046;2023-02-16T03:11:16;87.22;;;74.95;;
43819;SDS011;67762;52.476;6.046;2023-02-16T03:14:06;83.60;;;68.70;;
43819;SDS011;67762;52.476;6.046;2023-02-16T03:16:39;78.90;;;63.55;;
43819;SDS011;67762;52.476;6.046;2023-02-16T03:19:11;89.97;;;71.53;;
43819;SDS011;67762;52.476;6.046;2023-02-16T03:21:57;82.93;;;70.18;;
43819;SDS011;67762;52.476;6.046;2023-02-16T03:24:43;80.15;;;66.38;;
43819;SDS011;67762;52.476;6.046;2023-02-16T03:30:18;82.13;;;69.38;;
43819;SDS011;67762;52.476;6.046;2023-02-16T03:32:45;79.25;;;70.20;;
43819;SDS011;67762;52.476;6.046;2023-02-16T03:35:12;83.90;;;73.45;;
43819;SDS011;67762;52.476;6.046;2023-02-16T03:37:38;83.00;;;73.55;;
43819;SDS011;67762;52.476;6.046;2023-02-16T03:40:06;80.15;;;70.65;;
43819;SDS011;67762;52.476;6.046;2023-02-16T03:42:57;73.28;;;64.85;;
43819;SDS011;67762;52.476;6.046;2023-02-16T03:45:25;78.20;;;69.70;;
43819;SDS011;67762;52.476;6.046;2023-02-16T03:47:52;76.88;;;68.53;;
43819;SDS011;67762;52.476;6.046;2023-02-16T03:50:18;86.50;;;72.15;;
43819;SDS011;67762;52.476;6.046;2023-02-16T03:52:43;71.57;;;62.05;;
43819;SDS011;67762;52.476;6.046;2023-02-16T03:55:09;64.22;;;57.33;;
43819;SDS011;67762;52.476;6.046;2023-02-16T03:57:34;56.35;;;50.42;;
43819;SDS011;67762;52.476;6.046;2023-02-16T04:00:00;73.07;;;64.03;;
43819;SDS011;67762;52.476;6.046;2023-02-16T04:02:26;74.47;;;62.80;;
43819;SDS011;67762;52.476;6.046;2023-02-16T04:04:53;68.63;;;61.30;;
43819;SDS011;67762;52.476;6.046;2023-02-16T04:07:18;70.60;;;61.10;;
43819;SDS011;67762;52.476;6.046;2023-02-16T04:09:44;69.15;;;61.78;;
43819;SDS011;67762;52.476;6.046;2023-02-16T04:12:13;63.95;;;56.95;;
43819;SDS011;67762;52.476;6.046;2023-02-16T04:14:57;68.35;;;58.45;;
43819;SDS011;67762;52.476;6.046;2023-02-16T04:17:23;68.72;;;56.80;;
43819;SDS011;67762;52.476;6.046;2023-02-16T04:19:48;51.28;;;46.10;;
43819;SDS011;67762;52.476;6.046;2023-02-16T04:22:14;65.22;;;54.42;;
43819;SDS011;67762;52.476;6.046;2023-02-16T04:24:40;52.72;;;48.45;;
43819;SDS011;67762;52.476;6.046;2023-02-16T04:27:05;61.72;;;56.28;;
43819;SDS011;67762;52.476;6.046;2023-02-16T04:29:31;59.00;;;53.03;;
43819;SDS011;67762;52.476;6.046;2023-02-16T04:31:56;66.25;;;59.05;;
43819;SDS011;67762;52.476;6.046;2023-02-16T04:34:22;64.53;;;52.00;;
43819;SDS011;67762;52.476;6.046;2023-02-16T04:36:47;65.10;;;57.72;;
43819;SDS011;67762;52.476;6.046;2023-02-16T04:39:13;70.03;;;62.58;;
43819;SDS011;67762;52.476;6.046;2023-02-16T04:41:39;61.40;;;55.70;;
43819;SDS011;67762;52.476;6.046;2023-02-16T04:44:04;66.45;;;57.03;;
43819;SDS011;67762;52.476;6.046;2023-02-16T04:46:30;49.85;;;44.95;;
43819;SDS011;67762;52.476;6.046;2023-02-16T04:48:56;54.63;;;49.30;;
43819;SDS011;67762;52.476;6.046;2023-02-16T04:51:22;65.45;;;58.22;;
43819;SDS011;67762;52.476;6.046;2023-02-16T04:53:48;64.85;;;54.97;;
43819;SDS011;67762;52.476;6.046;2023-02-16T04:56:14;44.70;;;40.78;;
43819;SDS011;67762;52.476;6.046;2023-02-16T04:58:39;60.88;;;53.45;;
43819;SDS011;67762;52.476;6.046;2023-02-16T05:01:05;54.25;;;48.53;;
43819;SDS011;67762;52.476;6.046;2023-02-16T05:03:31;63.60;;;48.88;;
43819;SDS011;67762;52.476;6.046;2023-02-16T05:05:57;59.33;;;53.33;;
43819;SDS011;67762;52.476;6.046;2023-02-16T05:08:22;61.75;;;55.92;;
43819;SDS011;67762;52.476;6.046;2023-02-16T05:10:48;47.05;;;42.92;;
43819;SDS011;67762;52.476;6.046;2023-02-16T05:13:32;55.83;;;50.15;;
43819;SDS011;67762;52.476;6.046;2023-02-16T05:16:18;53.15;;;47.92;;
43819;SDS011;67762;52.476;6.046;2023-02-16T05:18:44;53.05;;;47.58;;
43819;SDS011;67762;52.476;6.046;2023-02-16T05:21:10;72.90;;;66.50;;
43819;SDS011;67762;52.476;6.046;2023-02-16T05:23:55;71.10;;;56.28;;
43819;SDS011;67762;52.476;6.046;2023-02-16T05:26:24;61.70;;;55.00;;
43819;SDS011;67762;52.476;6.046;2023-02-16T05:28:49;45.58;;;41.33;;
43819;SDS011;67762;52.476;6.046;2023-02-16T05:31:15;45.35;;;41.08;;
43819;SDS011;67762;52.476;6.046;2023-02-16T05:33:40;56.85;;;50.95;;
43819;SDS011;67762;52.476;6.046;2023-02-16T05:36:06;49.97;;;44.72;;
43819;SDS011;67762;52.476;6.046;2023-02-16T05:38:32;48.25;;;43.85;;
43819;SDS011;67762;52.476;6.046;2023-02-16T05:40:58;64.47;;;57.33;;
43819;SDS011;67762;52.476;6.046;2023-02-16T05:43:24;61.90;;;53.80;;
43819;SDS011;67762;52.476;6.046;2023-02-16T05:45:49;82.65;;;72.68;;
43819;SDS011;67762;52.476;6.046;2023-02-16T05:48:15;52.38;;;46.45;;
43819;SDS011;67762;52.476;6.046;2023-02-16T05:50:41;64.57;;;55.63;;
43819;SDS011;67762;52.476;6.046;2023-02-16T05:53:06;63.30;;;56.58;;
43819;SDS011;67762;52.476;6.046;2023-02-16T05:55:32;46.70;;;42.58;;
43819;SDS011;67762;52.476;6.046;2023-02-16T05:57:57;68.22;;;61.17;;
43819;SDS011;67762;52.476;6.046;2023-02-16T06:00:23;71.25;;;64.10;;
43819;SDS011;67762;52.476;6.046;2023-02-16T06:02:49;73.60;;;64.20;;
43819;SDS011;67762;52.476;6.046;2023-02-16T06:05:14;57.88;;;51.47;;
43819;SDS011;67762;52.476;6.046;2023-02-16T06:07:40;61.45;;;51.45;;
43819;SDS011;67762;52.476;6.046;2023-02-16T06:10:05;59.92;;;53.63;;
43819;SDS011;67762;52.476;6.046;2023-02-16T06:12:31;73.05;;;61.55;;
43819;SDS011;67762;52.476;6.046;2023-02-16T06:14:59;70.75;;;61.28;;
43819;SDS011;67762;52.476;6.046;2023-02-16T06:17:26;70.60;;;62.67;;
43819;SDS011;67762;52.476;6.046;2023-02-16T06:19:52;60.92;;;54.00;;
43819;SDS011;67762;52.476;6.046;2023-02-16T06:22:18;61.45;;;53.45;;
43819;SDS011;67762;52.476;6.046;2023-02-16T06:24:44;69.38;;;60.20;;
43819;SDS011;67762;52.476;6.046;2023-02-16T06:27:10;67.78;;;58.38;;
43819;SDS011;67762;52.476;6.046;2023-02-16T06:29:35;68.03;;;55.88;;
43819;SDS011;67762;52.476;6.046;2023-02-16T06:32:01;81.38;;;65.53;;
43819;SDS011;67762;52.476;6.046;2023-02-16T06:34:26;77.65;;;69.25;;
43819;SDS011;67762;52.476;6.046;2023-02-16T06:36:52;66.93;;;59.63;;
43819;SDS011;67762;52.476;6.046;2023-02-16T06:39:17;79.78;;;68.55;;
43819;SDS011;67762;52.476;6.046;2023-02-16T06:41:43;64.30;;;56.25;;
43819;SDS011;67762;52.476;6.046;2023-02-16T06:44:09;57.03;;;51.20;;
43819;SDS011;67762;52.476;6.046;2023-02-16T06:46:38;74.80;;;64.00;;
43819;SDS011;67762;52.476;6.046;2023-02-16T06:49:04;71.85;;;56.88;;
43819;SDS011;67762;52.476;6.046;2023-02-16T06:51:30;42.80;;;39.47;;
43819;SDS011;67762;52.476;6.046;2023-02-16T06:53:56;71.50;;;63.85;;
43819;SDS011;67762;52.476;6.046;2023-02-16T06:56:22;68.50;;;61.22;;
43819;SDS011;67762;52.476;6.046;2023-02-16T06:58:48;64.13;;;53.17;;
43819;SDS011;67762;52.476;6.046;2023-02-16T07:01:15;62.95;;;57.08;;
43819;SDS011;67762;52.476;6.046;2023-02-16T07:03:47;75.68;;;62.80;;
43819;SDS011;67762;52.476;6.046;2023-02-16T07:06:14;68.03;;;58.72;;
43819;SDS011;67762;52.476;6.046;2023-02-16T07:08:40;69.15;;;53.65;;
43819;SDS011;67762;52.476;6.046;2023-02-16T07:11:05;66.95;;;60.47;;
43819;SDS011;67762;52.476;6.046;2023-02-16T07:13:31;55.88;;;49.63;;
43819;SDS011;67762;52.476;6.046;2023-02-16T07:16:03;74.22;;;61.30;;
43819;SDS011;67762;52.476;6.046;2023-02-16T07:18:31;62.10;;;56.20;;
43819;SDS011;67762;52.476;6.046;2023-02-16T07:20:57;56.38;;;50.70;;
43819;SDS011;67762;52.476;6.046;2023-02-16T07:23:23;75.78;;;64.03;;
43819;SDS011;67762;52.476;6.046;2023-02-16T07:25:48;66.97;;;58.42;;
43819;SDS011;67762;52.476;6.046;2023-02-16T07:28:14;82.70;;;64.38;;
43819;SDS011;67762;52.476;6.046;2023-02-16T07:30:40;73.43;;;58.20;;
43819;SDS011;67762;52.476;6.046;2023-02-16T07:33:05;63.03;;;56.55;;
43819;SDS011;67762;52.476;6.046;2023-02-16T07:35:32;66.18;;;59.08;;
43819;SDS011;67762;52.476;6.046;2023-02-16T07:37:59;64.50;;;58.45;;
43819;SDS011;67762;52.476;6.046;2023-02-16T07:40:25;55.55;;;49.58;;
43819;SDS011;67762;52.476;6.046;2023-02-16T07:42:50;52.85;;;47.33;;
43819;SDS011;67762;52.476;6.046;2023-02-16T07:45:16;80.53;;;61.33;;
43819;SDS011;67762;52.476;6.046;2023-02-16T07:47:41;74.07;;;62.30;;
43819;SDS011;67762;52.476;6.046;2023-02-16T07:50:07;64.93;;;58.05;;
43819;SDS011;67762;52.476;6.046;2023-02-16T07:52:33;59.47;;;52.72;;
43819;SDS011;67762;52.476;6.046;2023-02-16T07:54:59;75.93;;;61.17;;
43819;SDS011;67762;52.476;6.046;2023-02-16T07:57:26;63.25;;;56.40;;
43819;SDS011;67762;52.476;6.046;2023-02-16T07:59:52;63.30;;;56.33;;
43819;SDS011;67762;52.476;6.046;2023-02-16T08:02:19;76.00;;;64.82;;
43819;SDS011;67762;52.476;6.046;2023-02-16T08:04:46;54.70;;;49.55;;
43819;SDS011;67762;52.476;6.046;2023-02-16T08:07:16;53.78;;;49.03;;
43819;SDS011;67762;52.476;6.046;2023-02-16T08:09:42;55.35;;;50.47;;
43819;SDS011;67762;52.476;6.046;2023-02-16T08:12:11;50.28;;;45.03;;
43819;SDS011;67762;52.476;6.046;2023-02-16T08:14:37;71.85;;;63.28;;
43819;SDS011;67762;52.476;6.046;2023-02-16T08:17:04;66.85;;;57.35;;
43819;SDS011;67762;52.476;6.046;2023-02-16T08:19:30;53.88;;;48.78;;
43819;SDS011;67762;52.476;6.046;2023-02-16T08:21:57;54.58;;;49.30;;
43819;SDS011;67762;52.476;6.046;2023-02-16T08:24:24;61.88;;;55.28;;
43819;SDS011;67762;52.476;6.046;2023-02-16T08:26:50;48.30;;;43.55;;
43819;SDS011;67762;52.476;6.046;2023-02-16T08:29:18;71.38;;;60.22;;
43819;SDS011;67762;52.476;6.046;2023-02-16T08:31:45;70.53;;;61.45;;
43819;SDS011;67762;52.476;6.046;2023-02-16T08:34:12;56.40;;;50.28;;
43819;SDS011;67762;52.476;6.046;2023-02-16T08:36:40;54.80;;;50.03;;
43819;SDS011;67762;52.476;6.046;2023-02-16T08:41:45;82.90;;;69.15;;
43819;SDS011;67762;52.476;6.046;2023-02-16T08:44:13;78.25;;;62.05;;
43819;SDS011;67762;52.476;6.046;2023-02-16T08:46:40;68.18;;;60.78;;
43819;SDS011;67762;52.476;6.046;2023-02-16T08:49:08;60.70;;;54.53;;
43819;SDS011;67762;52.476;6.046;2023-02-16T08:51:36;57.45;;;51.50;;
43819;SDS011;67762;52.476;6.046;2023-02-16T08:54:06;80.13;;;61.88;;
43819;SDS011;67762;52.476;6.046;2023-02-16T08:56:33;64.13;;;57.50;;
43819;SDS011;67762;52.476;6.046;2023-02-16T08:58:59;65.70;;;58.70;;
43819;SDS011;67762;52.476;6.046;2023-02-16T09:01:25;58.63;;;52.72;;
43819;SDS011;67762;52.476;6.046;2023-02-16T09:03:51;66.60;;;60.15;;
43819;SDS011;67762;52.476;6.046;2023-02-16T09:06:18;63.63;;;54.88;;
43819;SDS011;67762;52.476;6.046;2023-02-16T09:08:49;59.58;;;51.20;;
43819;SDS011;67762;52.476;6.046;2023-02-16T09:11:18;59.53;;;53.42;;
43819;SDS011;67762;52.476;6.046;2023-02-16T09:13:45;59.30;;;54.08;;
43819;SDS011;67762;52.476;6.046;2023-02-16T09:16:12;75.28;;;63.60;;
43819;SDS011;67762;52.476;6.046;2023-02-16T09:18:39;87.22;;;76.70;;
43819;SDS011;67762;52.476;6.046;2023-02-16T09:21:07;75.00;;;64.85;;
43819;SDS011;67762;52.476;6.046;2023-02-16T09:23:38;60.00;;;54.03;;
43819;SDS011;67762;52.476;6.046;2023-02-16T09:26:05;59.63;;;53.10;;
43819;SDS011;67762;52.476;6.046;2023-02-16T09:28:32;77.38;;;70.20;;
43819;SDS011;67762;52.476;6.046;2023-02-16T09:30:58;50.38;;;45.88;;
43819;SDS011;67762;52.476;6.046;2023-02-16T09:33:24;61.33;;;55.00;;
43819;SDS011;67762;52.476;6.046;2023-02-16T09:35:50;61.08;;;54.40;;
43819;SDS011;67762;52.476;6.046;2023-02-16T09:38:17;61.95;;;55.88;;
43819;SDS011;67762;52.476;6.046;2023-02-16T09:40:43;69.70;;;62.85;;
43819;SDS011;67762;52.476;6.046;2023-02-16T09:43:17;71.65;;;64.82;;
43819;SDS011;67762;52.476;6.046;2023-02-16T09:46:00;53.72;;;47.80;;
43819;SDS011;67762;52.476;6.046;2023-02-16T09:48:35;57.95;;;52.35;;
43819;SDS011;67762;52.476;6.046;2023-02-16T09:51:03;58.15;;;51.88;;
43819;SDS011;67762;52.476;6.046;2023-02-16T09:53:34;56.63;;;51.85;;
43819;SDS011;67762;52.476;6.046;2023-02-16T10:02:30;92.28;;;69.28;;
43819;SDS011;67762;52.476;6.046;2023-02-16T10:05:13;91.95;;;73.20;;
43819;SDS011;67762;52.476;6.046;2023-02-16T10:10:28;67.70;;;61.67;;
43819;SDS011;67762;52.476;6.046;2023-02-16T10:13:04;97.32;;;79.75;;
43819;SDS011;67762;52.476;6.046;2023-02-16T10:15:47;71.45;;;64.30;;
43819;SDS011;67762;52.476;6.046;2023-02-16T10:18:26;96.65;;;76.88;;
43819;SDS011;67762;52.476;6.046;2023-02-16T10:20:56;80.80;;;71.50;;
43819;SDS011;67762;52.476;6.046;2023-02-16T10:23:47;63.13;;;57.58;;
43819;SDS011;67762;52.476;6.046;2023-02-16T10:26:34;70.07;;;62.85;;
43819;SDS011;67762;52.476;6.046;2023-02-16T10:29:13;59.42;;;54.30;;
43819;SDS011;67762;52.476;6.046;2023-02-16T10:34:47;59.50;;;53.97;;
43819;SDS011;67762;52.476;6.046;2023-02-16T10:40:18;94.30;;;75.10;;
43819;SDS011;67762;52.476;6.046;2023-02-16T10:42:53;75.97;;;68.13;;
43819;SDS011;67762;52.476;6.046;2023-02-16T10:45:28;66.72;;;60.28;;
43819;SDS011;67762;52.476;6.046;2023-02-16T10:47:57;83.00;;;73.80;;
43819;SDS011;67762;52.476;6.046;2023-02-16T10:50:25;73.63;;;65.65;;
43819;SDS011;67762;52.476;6.046;2023-02-16T10:53:21;95.60;;;80.53;;
43819;SDS011;67762;52.476;6.046;2023-02-16T10:55:59;76.93;;;68.65;;
43819;SDS011;67762;52.476;6.046;2023-02-16T10:58:25;115.00;;;92.80;;
43819;SDS011;67762;52.476;6.046;2023-02-16T11:01:06;116.30;;;95.32;;
43819;SDS011;67762;52.476;6.046;2023-02-16T11:03:42;77.80;;;69.82;;
43819;SDS011;67762;52.476;6.046;2023-02-16T11:06:21;65.43;;;59.53;;
43819;SDS011;67762;52.476;6.046;2023-02-16T11:08:53;78.43;;;70.30;;
43819;SDS011;67762;52.476;6.046;2023-02-16T11:11:25;88.80;;;79.32;;
43819;SDS011;67762;52.476;6.046;2023-02-16T11:14:02;84.90;;;75.95;;
43819;SDS011;67762;52.476;6.046;2023-02-16T11:16:42;92.55;;;83.07;;
43819;SDS011;67762;52.476;6.046;2023-02-16T11:19:17;78.13;;;70.38;;
43819;SDS011;67762;52.476;6.046;2023-02-16T11:21:50;110.05;;;91.25;;
43819;SDS011;67762;52.476;6.046;2023-02-16T11:29:45;98.55;;;88.05;;
43819;SDS011;67762;52.476;6.046;2023-02-16T11:32:11;84.43;;;76.13;;
43819;SDS011;67762;52.476;6.046;2023-02-16T11:34:40;100.25;;;88.32;;
43819;SDS011;67762;52.476;6.046;2023-02-16T11:37:14;79.70;;;72.20;;
43819;SDS011;67762;52.476;6.046;2023-02-16T11:39:52;70.72;;;64.32;;
43819;SDS011;67762;52.476;6.046;2023-02-16T11:42:30;75.15;;;68.88;;
43819;SDS011;67762;52.476;6.046;2023-02-16T11:44:59;112.68;;;92.68;;
43819;SDS011;67762;52.476;6.046;2023-02-16T11:47:32;93.63;;;84.03;;
43819;SDS011;67762;52.476;6.046;2023-02-16T11:53:27;102.10;;;89.90;;
43819;SDS011;67762;52.476;6.046;2023-02-16T11:59:12;117.07;;;104.60;;
43819;SDS011;67762;52.476;6.046;2023-02-16T12:21:22;84.43;;;75.13;;
43819;SDS011;67762;52.476;6.046;2023-02-16T12:27:21;95.05;;;82.68;;
43819;SDS011;67762;52.476;6.046;2023-02-16T12:29:59;78.32;;;70.63;;
43819;SDS011;67762;52.476;6.046;2023-02-16T12:32:40;79.90;;;71.78;;
43819;SDS011;67762;52.476;6.046;2023-02-16T12:41:03;68.93;;;62.67;;
43819;SDS011;67762;52.476;6.046;2023-02-16T12:44:10;80.80;;;72.07;;
43819;SDS011;67762;52.476;6.046;2023-02-16T12:46:38;73.68;;;66.05;;
43819;SDS011;67762;52.476;6.046;2023-02-16T12:49:22;60.20;;;54.78;;
43819;SDS011;67762;52.476;6.046;2023-02-16T12:57:51;79.35;;;70.88;;
43819;SDS011;67762;52.476;6.046;2023-02-16T13:00:24;65.32;;;58.80;;
43819;SDS011;67762;52.476;6.046;2023-02-16T13:03:03;72.53;;;65.35;;
43819;SDS011;67762;52.476;6.046;2023-02-16T13:05:39;66.15;;;59.65;;
43819;SDS011;67762;52.476;6.046;2023-02-16T13:10:55;57.40;;;51.97;;
43819;SDS011;67762;52.476;6.046;2023-02-16T13:13:27;54.55;;;49.63;;
43819;SDS011;67762;52.476;6.046;2023-02-16T13:18:43;81.00;;;73.55;;
43819;SDS011;67762;52.476;6.046;2023-02-16T13:21:13;73.20;;;66.20;;
43819;SDS011;67762;52.476;6.046;2023-02-16T13:29:18;55.88;;;50.05;;
43819;SDS011;67762;52.476;6.046;2023-02-16T13:37:38;56.13;;;50.72;;
43819;SDS011;67762;52.476;6.046;2023-02-16T13:45:53;57.05;;;51.38;;
43819;SDS011;67762;52.476;6.046;2023-02-16T13:48:23;55.38;;;50.20;;
43819;SDS011;67762;52.476;6.046;2023-02-16T13:51:11;60.22;;;54.97;;
43819;SDS011;67762;52.476;6.046;2023-02-16T13:53:40;53.22;;;48.65;;
43819;SDS011;67762;52.476;6.046;2023-02-16T14:01:47;63.13;;;56.75;;
43819;SDS011;67762;52.476;6.046;2023-02-16T14:06:46;55.40;;;50.53;;
43819;SDS011;67762;52.476;6.046;2023-02-16T14:15:18;54.28;;;50.03;;
43819;SDS011;67762;52.476;6.046;2023-02-16T14:30:21;52.55;;;48.00;;
43819;SDS011;67762;52.476;6.046;2023-02-16T14:40:52;67.70;;;56.75;;
43819;SDS011;67762;52.476;6.046;2023-02-16T14:46:42;50.03;;;44.67;;
43819;SDS011;67762;52.476;6.046;2023-02-16T14:57:34;70.50;;;63.58;;
43819;SDS011;67762;52.476;6.046;2023-02-16T15:05:02;51.47;;;46.80;;
43819;SDS011;67762;52.476;6.046;2023-02-16T15:07:52;50.65;;;46.50;;
43819;SDS011;67762;52.476;6.046;2023-02-16T15:10:26;52.28;;;47.05;;
43819;SDS011;67762;52.476;6.046;2023-02-16T15:12:53;56.13;;;50.97;;
43819;SDS011;67762;52.476;6.046;2023-02-16T15:15:41;57.03;;;51.63;;
43819;SDS011;67762;52.476;6.046;2023-02-16T15:18:16;74.80;;;68.47;;
43819;SDS011;67762;52.476;6.046;2023-02-16T15:20:47;61.03;;;55.65;;
43819;SDS011;67762;52.476;6.046;2023-02-16T15:23:19;54.83;;;49.90;;
43819;SDS011;67762;52.476;6.046;2023-02-16T15:26:03;59.53;;;53.58;;
43819;SDS011;67762;52.476;6.046;2023-02-16T15:28:33;47.90;;;43.45;;
43819;SDS011;67762;52.476;6.046;2023-02-16T15:31:04;71.75;;;64.90;;
43819;SDS011;67762;52.476;6.046;2023-02-16T15:33:39;56.47;;;51.70;;
43819;SDS011;67762;52.476;6.046;2023-02-16T15:36:10;55.83;;;50.85;;
43819;SDS011;67762;52.476;6.046;2023-02-16T15:38:39;61.33;;;55.30;;
43819;SDS011;67762;52.476;6.046;2023-02-16T15:41:08;65.28;;;58.80;;
43819;SDS011;67762;52.476;6.046;2023-02-16T15:51:51;59.28;;;53.38;;
43819;SDS011;67762;52.476;6.046;2023-02-16T15:54:26;54.97;;;50.78;;
43819;SDS011;67762;52.476;6.046;2023-02-16T15:56:58;54.03;;;48.67;;
43819;SDS011;67762;52.476;6.046;2023-02-16T15:59:33;64.00;;;57.75;;
43819;SDS011;67762;52.476;6.046;2023-02-16T16:04:30;54.38;;;49.55;;
43819;SDS011;67762;52.476;6.046;2023-02-16T16:07:03;52.90;;;48.35;;
43819;SDS011;67762;52.476;6.046;2023-02-16T16:09:31;51.97;;;46.97;;
43819;SDS011;67762;52.476;6.046;2023-02-16T16:11:58;56.05;;;51.58;;
43819;SDS011;67762;52.476;6.046;2023-02-16T16:14:27;64.72;;;58.97;;
43819;SDS011;67762;52.476;6.046;2023-02-16T16:16:53;58.13;;;52.20;;
43819;SDS011;67762;52.476;6.046;2023-02-16T16:19:30;67.82;;;61.15;;
43819;SDS011;67762;52.476;6.046;2023-02-16T16:21:57;64.07;;;57.72;;
43819;SDS011;67762;52.476;6.046;2023-02-16T16:24:34;85.15;;;76.47;;
43819;SDS011;67762;52.476;6.046;2023-02-16T16:27:09;80.43;;;72.30;;
43819;SDS011;67762;52.476;6.046;2023-02-16T16:29:43;86.60;;;77.65;;
43819;SDS011;67762;52.476;6.046;2023-02-16T16:32:16;94.68;;;82.53;;
43819;SDS011;67762;52.476;6.046;2023-02-16T16:34:46;89.47;;;79.63;;
43819;SDS011;67762;52.476;6.046;2023-02-16T16:37:32;77.53;;;70.07;;
43819;SDS011;67762;52.476;6.046;2023-02-16T16:42:32;79.80;;;71.60;;
43819;SDS011;67762;52.476;6.046;2023-02-16T16:45:04;81.55;;;73.28;;
43819;SDS011;67762;52.476;6.046;2023-02-16T16:47:49;77.35;;;68.95;;
43819;SDS011;67762;52.476;6.046;2023-02-16T16:52:48;83.50;;;75.35;;
43819;SDS011;67762;52.476;6.046;2023-02-16T16:57:46;92.90;;;83.22;;
43819;SDS011;67762;52.476;6.046;2023-02-16T17:00:17;88.90;;;79.63;;
43819;SDS011;67762;52.476;6.046;2023-02-16T17:02:43;103.13;;;87.88;;
43819;SDS011;67762;52.476;6.046;2023-02-16T17:05:09;85.97;;;77.53;;
43819;SDS011;67762;52.476;6.046;2023-02-16T17:07:37;100.78;;;88.90;;
43819;SDS011;67762;52.476;6.046;2023-02-16T17:10:03;117.95;;;93.97;;
43819;SDS011;67762;52.476;6.046;2023-02-16T17:12:30;80.45;;;72.00;;
43819;SDS011;67762;52.476;6.046;2023-02-16T17:14:56;78.72;;;71.10;;
43819;SDS011;67762;52.476;6.046;2023-02-16T17:17:21;106.00;;;91.50;;
43819;SDS011;67762;52.476;6.046;2023-02-16T17:19:47;81.90;;;73.72;;
43819;SDS011;67762;52.476;6.046;2023-02-16T17:22:13;94.30;;;83.95;;
43819;SDS011;67762;52.476;6.046;2023-02-16T17:24:40;76.68;;;69.82;;
43819;SDS011;67762;52.476;6.046;2023-02-16T17:27:06;82.97;;;75.20;;
43819;SDS011;67762;52.476;6.046;2023-02-16T17:29:32;89.05;;;79.55;;
43819;SDS011;67762;52.476;6.046;2023-02-16T17:31:57;94.78;;;86.82;;
43819;SDS011;67762;52.476;6.046;2023-02-16T17:34:23;73.88;;;67.18;;
43819;SDS011;67762;52.476;6.046;2023-02-16T17:37:00;81.75;;;75.20;;
43819;SDS011;67762;52.476;6.046;2023-02-16T17:39:28;68.85;;;64.07;;
43819;SDS011;67762;52.476;6.046;2023-02-16T17:41:54;93.15;;;83.40;;
43819;SDS011;67762;52.476;6.046;2023-02-16T17:44:22;72.45;;;66.57;;
43819;SDS011;67762;52.476;6.046;2023-02-16T17:46:47;89.50;;;80.53;;
43819;SDS011;67762;52.476;6.046;2023-02-16T17:49:13;72.82;;;67.07;;
43819;SDS011;67762;52.476;6.046;2023-02-16T17:51:39;71.03;;;65.88;;
43819;SDS011;67762;52.476;6.046;2023-02-16T17:54:05;81.13;;;73.72;;
43819;SDS011;67762;52.476;6.046;2023-02-16T17:56:35;76.43;;;70.10;;